Hickory Valley, Louisiana
Current Conditions -  °F | °C
As of 12:35 AM on Monday 24 Nov 2014 (Local Time) from KRSN Reporting Station
Clear Clear  
Wind Chill: 60°   Ceiling: Unl
Heat Index: 60°   Visibility: 10mi
Dew Point: 54°   Wind: 6mph
Humidity: 79%   Direction: 250°WSW
Pressure: 29.68"   Gusts: NA
Location:  32.0547°N, 92.4144°W
Report Text: KRSN 240635Z AUTO 25005KT 10SM CLR 16/12 A2968 RMK AO2 P0001 T01570120
Loading
Personal Weather Stations






























Interactive Weather Map New forecast layout! Learn more

10-Day Weather Forecast

Advertisements
Track Severe Weather on mobile